Narathiwat, Thailand
Current Conditions -  °F | °C
As of 10:00 PM on Friday 24 Oct 2014 (Local Time) from WMKC Reporting Station
Light Rain Light Rain  
Wind Chill: 75°   Ceiling: 19000
Heat Index: 75°   Visibility: 4mi
Dew Point: 73°   Wind: 5mph
Humidity: 94%   Direction: 200°SSW
Pressure: 29.88"   Gusts: NA
Location:  6.43°N, 101.82°E
Report Text: WMKC 241500Z 20004KT 6000 -RA FEW010 SCT020 OVC190 24/23 Q1012
Loading
Personal Weather Stations






























Interactive Weather Map
Tropical Storm Tracking
New forecast layout! Learn more

10-Day Weather Forecast

Advertisements
Track Severe Weather on mobile